< < Back
Terminal Aerodrome Forecast


Current Version              Previous Versions:   1  2  3  4  5  6  7  8  9  

Terminal Aerodrome Forecast

995
FTUS42 KMLB 231100
TAFMCO
TAF
KMCO 231127Z 2312/2412 15003KT P6SM FEW005 BKN150
     FM231500 19004KT P6SM SCT020 BKN200
     FM232000 15006KT P6SM VCTS SCT035CB BKN120
      TEMPO 2320/2323 3SM TSRA BKN025CB
     FM240200 15003KT P6SM SCT040 BKN140=

Latest METAR

277
SAUS70 KWBC 232000 RRI
MTRMCO
METAR KMCO 231953Z 00000KT 10SM FEW030 BKN065 BKN100 OVC220 28/22 A2998
RMK AO2 SLP151 CB DSNT N-E-SE AND DSNT SW-NW MOV E
T02780217


USA.gov is the U.S. government's official web portal to all federal, state and local government web resources and services.